Grove City, Ohio
Current Conditions -  °F | °C
As of 8:55 AM on Monday 26 Jan 2015 (Local Time) from KTZR Reporting Station
Overcast Overcast  
Wind Chill:   Ceiling: 6000
Heat Index: 19°   Visibility: 7mi
Dew Point: 16°   Wind: 14mph
Humidity: 86%   Direction: 340°NNW
Pressure: 29.81"   Gusts: NA
Location:  39.87°N, 83.07°W
Report Text: KTZR 261355Z 34012KT 7SM OVC060 M07/M09 A2981
Loading
Personal Weather Stations






























Interactive Weather Map New forecast layout! Learn more

10-Day Weather Forecast

Advertisements
Track Severe Weather on mobile